createdAt,value
2019-04-20T00:01:01.674Z,18.73
2019-04-20T00:06:09.055Z,18.13
2019-04-20T00:11:21.871Z,18.40
2019-04-20T00:16:23.080Z,18.77
2019-04-20T00:21:53.411Z,18.93
2019-04-20T00:27:16.309Z,20.27
2019-04-20T00:32:12.508Z,19.30
2019-04-20T00:37:08.904Z,19.03
2019-04-20T00:42:16.276Z,19.70
2019-04-20T00:47:34.888Z,18.60
2019-04-20T00:52:42.491Z,20.43
2019-04-20T00:57:46.376Z,19.07
2019-04-20T01:02:54.106Z,20.82
2019-04-20T01:08:02.144Z,19.73
2019-04-20T01:13:12.203Z,19.48
2019-04-20T01:18:15.188Z,19.07
2019-04-20T01:23:23.778Z,19.97
2019-04-20T01:28:46.366Z,19.87
2019-04-20T01:33:46.087Z,19.77
2019-04-20T01:38:57.803Z,20.57
2019-04-20T01:43:50.210Z,19.23
2019-04-20T01:48:59.993Z,18.47
2019-04-20T01:54:24.934Z,20.13
2019-04-20T01:59:37.976Z,18.70
2019-04-20T02:04:39.042Z,20.37
2019-04-20T02:09:48.506Z,20.03
2019-04-20T02:14:55.262Z,18.77
2019-04-20T02:20:15.729Z,19.33
2019-04-20T02:25:03.834Z,19.27
2019-04-20T02:36:04.642Z,19.53
2019-04-20T02:41:11.547Z,19.50
2019-04-20T02:46:12.322Z,19.80
2019-04-20T02:51:26.241Z,20.83
2019-04-20T02:56:32.018Z,19.77
2019-04-20T03:01:36.816Z,19.83
2019-04-20T03:06:36.308Z,19.00
2019-04-20T03:11:59.589Z,19.40
2019-04-20T03:16:57.172Z,19.07
2019-04-20T03:22:09.463Z,18.10
2019-04-20T03:27:12.385Z,19.37
2019-04-20T03:37:42.205Z,18.90
2019-04-20T03:42:22.375Z,19.73
2019-04-20T03:47:38.577Z,20.13
2019-04-20T03:53:02.750Z,20.03
2019-04-20T03:58:17.040Z,19.95
2019-04-20T04:03:36.159Z,19.87
2019-04-20T04:08:24.759Z,20.40
2019-04-20T04:13:22.915Z,19.50
2019-04-20T04:18:36.844Z,18.83
2019-04-20T04:23:49.015Z,19.33
2019-04-20T04:29:00.297Z,18.47
2019-04-20T04:34:10.769Z,17.48
2019-04-20T04:39:22.164Z,17.10
2019-04-20T04:44:21.447Z,18.50
2019-04-20T04:49:20.840Z,16.40
2019-04-20T04:54:28.822Z,16.30
2019-04-20T04:59:25.796Z,15.47
2019-04-20T05:05:08.610Z,15.07
2019-04-20T05:09:48.644Z,14.50
2019-04-20T05:15:04.313Z,13.60
2019-04-20T05:20:19.023Z,14.27
2019-04-20T05:25:30.904Z,13.90
2019-04-20T05:30:24.546Z,13.53
2019-04-20T05:35:49.937Z,12.60
2019-04-20T05:40:55.714Z,13.30
2019-04-20T05:45:58.699Z,12.40
2019-04-20T05:51:12.162Z,12.37
2019-04-20T05:56:17.269Z,12.43
2019-04-20T06:01:26.930Z,12.00
2019-04-20T06:06:34.580Z,12.20
2019-04-20T06:11:47.832Z,10.77
2019-04-20T06:16:59.795Z,11.57
2019-04-20T06:22:12.596Z,11.67
2019-04-20T06:27:16.378Z,10.97
2019-04-20T06:32:28.785Z,12.33
2019-04-20T06:37:29.622Z,11.23
2019-04-20T06:42:36.633Z,13.77
2019-04-20T06:47:47.010Z,12.53
2019-04-20T06:52:52.713Z,11.97
2019-04-20T06:58:22.102Z,16.80
2019-04-20T07:03:17.139Z,12.88
2019-04-20T07:08:37.399Z,16.57
2019-04-20T07:13:19.993Z,13.53
2019-04-20T07:18:35.654Z,14.57
2019-04-20T07:23:41.884Z,16.00
2019-04-20T07:28:56.797Z,17.33
2019-04-20T07:33:59.354Z,16.97
2019-04-20T07:39:07.592Z,16.57
2019-04-20T07:44:11.795Z,16.87
2019-04-20T07:49:22.441Z,18.15
2019-04-20T07:54:31.625Z,17.93
2019-04-20T07:59:25.230Z,19.10
2019-04-20T08:04:44.212Z,18.00
2019-04-20T08:09:44.265Z,19.60
2019-04-20T08:15:16.598Z,17.47
2019-04-20T08:20:09.251Z,17.10
2019-04-20T08:25:08.593Z,18.60
2019-04-20T08:30:30.909Z,20.00
2019-04-20T08:35:40.361Z,17.50
2019-04-20T08:40:43.599Z,18.10
2019-04-20T08:45:57.460Z,18.17
2019-04-20T08:50:57.434Z,18.13
2019-04-20T08:56:00.257Z,18.27
2019-04-20T09:00:58.809Z,19.00
2019-04-20T09:06:09.813Z,18.87
2019-04-20T09:11:25.002Z,18.37
2019-04-20T09:16:19.874Z,17.00
2019-04-20T09:21:35.553Z,15.70
2019-04-20T09:26:50.268Z,16.10
2019-04-20T09:31:52.097Z,16.77
2019-04-20T09:37:22.424Z,16.20
2019-04-20T09:42:15.212Z,14.77
2019-04-20T09:47:28.375Z,11.60
2019-04-20T09:52:46.414Z,10.10
2019-04-20T09:57:54.228Z,9.93
2019-04-20T10:02:43.383Z,8.90
2019-04-20T10:07:56.026Z,8.63
2019-04-20T10:12:58.372Z,9.07
2019-04-20T10:18:05.746Z,8.57
2019-04-20T10:23:12.472Z,8.47
2019-04-20T10:28:19.422Z,9.80
2019-04-20T10:33:25.791Z,9.83
2019-04-20T10:38:34.294Z,8.57
2019-04-20T10:43:40.756Z,9.68
2019-04-20T10:48:51.670Z,9.23
2019-04-20T10:53:56.203Z,9.15
2019-04-20T10:59:01.539Z,9.20
2019-04-20T11:04:08.361Z,7.67
2019-04-20T11:09:14.324Z,8.03
2019-04-20T11:14:26.606Z,7.73
2019-04-20T11:19:27.439Z,6.20
2019-04-20T11:24:34.363Z,6.87
2019-04-20T11:29:40.240Z,6.90
2019-04-20T11:34:47.032Z,6.92
2019-04-20T11:39:52.917Z,6.67
2019-04-20T11:44:58.402Z,6.45
2019-04-20T11:50:03.839Z,5.85
2019-04-20T11:55:10.535Z,6.45
2019-04-20T12:00:19.200Z,6.70
2019-04-20T12:05:32.411Z,6.42
2019-04-20T12:10:33.135Z,7.05
2019-04-20T12:15:39.550Z,13.20
2019-04-20T12:20:44.999Z,14.30
2019-04-20T12:25:50.406Z,13.67
2019-04-20T12:31:03.042Z,13.85
2019-04-20T12:36:03.243Z,13.72
2019-04-20T12:41:11.031Z,14.05
2019-04-20T12:46:18.328Z,14.38
2019-04-20T12:51:30.382Z,14.35
2019-04-20T12:56:30.647Z,14.58
2019-04-20T13:01:37.315Z,17.45
2019-04-20T13:06:44.676Z,14.93
2019-04-20T13:12:04.430Z,13.35
2019-04-20T13:17:06.309Z,10.68
2019-04-20T13:22:12.965Z,14.38
2019-04-20T13:27:18.698Z,13.48
2019-04-20T13:32:25.576Z,12.35
2019-04-20T13:37:31.867Z,15.48
2019-04-20T13:42:38.175Z,12.65
2019-04-20T13:47:43.571Z,13.32
2019-04-20T13:52:49.373Z,14.97
2019-04-20T13:58:00.334Z,15.35
2019-04-20T14:03:08.971Z,15.90
2019-04-20T14:08:21.130Z,16.93
2019-04-20T14:13:36.556Z,14.65
2019-04-20T14:18:33.706Z,13.90
2019-04-20T14:23:39.143Z,11.70
2019-04-20T14:28:45.128Z,11.28
2019-04-20T14:33:50.914Z,10.43
2019-04-20T14:38:56.146Z,9.60
2019-04-20T14:44:01.642Z,9.53
2019-04-20T14:49:07.079Z,10.05
2019-04-20T14:54:13.775Z,9.80
2019-04-20T14:59:25.323Z,10.67
2019-04-20T15:04:32.044Z,9.60
2019-04-20T15:09:39.374Z,9.57
2019-04-20T15:14:44.995Z,11.63
2019-04-20T15:20:03.645Z,11.55
2019-04-20T15:25:09.637Z,11.80
2019-04-20T15:30:16.228Z,10.03
2019-04-20T15:35:23.355Z,12.73
2019-04-20T15:40:29.033Z,15.03
2019-04-20T15:45:34.296Z,16.67
2019-04-20T15:50:41.360Z,13.50
2019-04-20T15:55:48.747Z,13.80
2019-04-20T16:00:54.636Z,11.85
2019-04-20T16:06:03.257Z,12.83
2019-04-20T16:11:11.427Z,13.23
2019-04-20T16:16:16.976Z,11.33
2019-04-20T16:21:26.068Z,12.97
2019-04-20T16:26:35.589Z,13.27
2019-04-20T16:31:43.934Z,12.80
2019-04-20T16:36:50.132Z,12.13
2019-04-20T16:41:56.178Z,14.10
2019-04-20T16:47:01.616Z,15.03
2019-04-20T16:52:07.403Z,15.73
2019-04-20T16:57:14.211Z,15.37
2019-04-20T17:02:21.172Z,14.90
2019-04-20T17:07:39.414Z,15.80
2019-04-20T17:12:46.050Z,15.73
2019-04-20T17:17:53.156Z,14.78
2019-04-20T17:22:58.537Z,14.17
2019-04-20T17:28:24.801Z,15.13
2019-04-20T17:33:47.499Z,16.67
2019-04-20T17:38:48.474Z,15.43
2019-04-20T17:44:11.655Z,14.90
2019-04-20T17:49:13.617Z,14.20
2019-04-20T17:54:23.495Z,14.60
2019-04-20T17:59:30.288Z,14.77
2019-04-20T18:05:06.570Z,13.67
2019-04-20T18:10:14.301Z,15.23
2019-04-20T18:15:21.241Z,14.93
2019-04-20T18:20:14.961Z,14.93
2019-04-20T18:25:53.373Z,16.07
2019-04-20T18:30:43.662Z,16.03
2019-04-20T18:35:46.020Z,16.90
2019-04-20T18:40:55.715Z,14.90
2019-04-20T18:46:15.104Z,15.90
2019-04-20T18:51:03.921Z,15.80
2019-04-20T18:56:09.620Z,14.80
2019-04-20T19:01:15.275Z,13.93
2019-04-20T19:06:21.775Z,13.67
2019-04-20T19:11:28.581Z,14.00
2019-04-20T19:16:52.884Z,13.90
2019-04-20T19:21:45.957Z,14.20
2019-04-20T19:26:58.347Z,12.45
2019-04-20T19:32:17.563Z,11.60
2019-04-20T19:37:15.689Z,11.10
2019-04-20T19:42:29.795Z,10.47
2019-04-20T19:47:38.350Z,9.50
2019-04-20T19:52:51.562Z,10.50
2019-04-20T19:57:51.247Z,10.50
2019-04-20T20:02:41.514Z,11.77
2019-04-20T20:07:52.525Z,11.60
2019-04-20T20:12:58.986Z,12.30
2019-04-20T20:18:19.395Z,11.30
2019-04-20T20:23:10.046Z,12.27
2019-04-20T20:28:27.088Z,12.37
2019-04-20T20:33:39.505Z,11.77
2019-04-20T20:38:36.933Z,12.17
2019-04-20T20:43:49.626Z,12.43
2019-04-20T20:49:06.293Z,13.60
2019-04-20T20:54:03.318Z,13.50
2019-04-20T20:59:07.530Z,13.78
2019-04-20T21:04:06.901Z,12.57
2019-04-20T21:09:12.570Z,12.43
2019-04-20T21:14:23.779Z,12.33
2019-04-20T21:19:45.342Z,13.93
2019-04-20T21:24:38.026Z,11.83
2019-04-20T21:29:49.293Z,11.95
2019-04-20T21:34:55.618Z,12.23
2019-04-20T21:40:01.481Z,12.00
2019-04-20T21:45:10.293Z,12.13
2019-04-20T21:50:31.214Z,11.40
2019-04-20T21:55:19.336Z,11.80
2019-04-20T22:00:40.843Z,10.80
2019-04-20T22:05:42.315Z,11.63
2019-04-20T22:10:50.038Z,12.28
2019-04-20T22:16:01.428Z,12.95
2019-04-20T22:21:11.182Z,13.87
2019-04-20T22:26:20.754Z,18.57
2019-04-20T22:31:16.374Z,16.73
2019-04-20T22:36:25.939Z,16.43
2019-04-20T22:41:30.064Z,17.37
2019-04-20T22:46:37.575Z,19.03
2019-04-20T22:51:53.184Z,19.27
2019-04-20T22:57:01.069Z,18.67
2019-04-20T23:02:00.327Z,19.23
2019-04-20T23:07:03.229Z,17.87
2019-04-20T23:12:12.223Z,18.40
2019-04-20T23:17:18.465Z,15.90
2019-04-20T23:22:23.084Z,14.63
2019-04-20T23:27:31.602Z,14.00
2019-04-20T23:32:35.873Z,13.90
2019-04-20T23:37:42.290Z,13.37
2019-04-20T23:42:53.715Z,14.03
2019-04-20T23:48:05.394Z,12.97
2019-04-20T23:53:29.828Z,13.23
2019-04-20T23:58:19.478Z,12.63
